ASA1311 KSJC-KSEA
Flight info
| Callsign | ASA1311 |
|---|---|
| Flight time | N/A |
| Altitude | 36000 |
| Route | LOUPE1 HRNER RBL LMT HAWKZ8 |
| Aircraft | B737/M-SDE2E3FGHIRWXY/LB1 |
Departure
| Time | 2026-05-05 05:24 |
|---|---|
| Airport | Norman Y. Mineta San Jose International Airport (KSJC) |
Arrival
| Time | N/A |
|---|---|
| Airport | Seattle–Tacoma International Airport (KSEA) |
| Time | Latitude | Longitude | Altitude | Speed | Heading |
|---|---|---|---|---|---|
| 2026-05-05 04:30 | 37.36241 | -121.92257 | 49 ft | 0 kts | 50° |
| 2026-05-05 05:14 | 37.36237 | -121.92262 | 50 ft | 4 kts | 60° |
| 2026-05-05 05:15 | 37.36223 | -121.92288 | 48 ft | 4 kts | 56° |
| 2026-05-05 05:15 | 37.36210 | -121.92317 | 48 ft | 4 kts | 77° |
| 2026-05-05 05:15 | 37.36211 | -121.92346 | 47 ft | 4 kts | 131° |
| 2026-05-05 05:15 | 37.36214 | -121.92351 | 48 ft | 1 kts | 139° |
| 2026-05-05 05:19 | 37.36201 | -121.92336 | 50 ft | 5 kts | 139° |
| 2026-05-05 05:19 | 37.36154 | -121.92285 | 50 ft | 12 kts | 139° |
| 2026-05-05 05:20 | 37.36083 | -121.92207 | 52 ft | 15 kts | 139° |
| 2026-05-05 05:20 | 37.36001 | -121.92117 | 51 ft | 17 kts | 139° |
| 2026-05-05 05:20 | 37.35915 | -121.92022 | 53 ft | 16 kts | 139° |
| 2026-05-05 05:20 | 37.35831 | -121.91931 | 61 ft | 16 kts | 140° |
| 2026-05-05 05:21 | 37.35751 | -121.91844 | 59 ft | 15 kts | 139° |
| 2026-05-05 05:21 | 37.35675 | -121.91760 | 57 ft | 14 kts | 139° |
| 2026-05-05 05:21 | 37.35601 | -121.91679 | 59 ft | 14 kts | 139° |
| 2026-05-05 05:21 | 37.35532 | -121.91602 | 56 ft | 13 kts | 138° |
| 2026-05-05 05:22 | 37.35464 | -121.91530 | 59 ft | 13 kts | 140° |
| 2026-05-05 05:22 | 37.35390 | -121.91449 | 60 ft | 15 kts | 139° |
| 2026-05-05 05:22 | 37.35300 | -121.91460 | 58 ft | 15 kts | 226° |
| 2026-05-05 05:22 | 37.35255 | -121.91543 | 62 ft | 9 kts | 271° |
| 2026-05-05 05:23 | 37.35288 | -121.91597 | 63 ft | 6 kts | 316° |
| 2026-05-05 05:23 | 37.35365 | -121.91682 | 62 ft | 41 kts | 319° |
| 2026-05-05 05:23 | 37.35768 | -121.92124 | 59 ft | 111 kts | 319° |
| 2026-05-05 05:23 | 37.36500 | -121.92916 | 115 ft | 159 kts | 320° |
| 2026-05-05 05:24 | 37.37357 | -121.93841 | 691 ft | 165 kts | 320° |
| 2026-05-05 05:24 | 37.38215 | -121.94736 | 1582 ft | 154 kts | 318° |
| 2026-05-05 05:24 | 37.39051 | -121.95651 | 2195 ft | 166 kts | 316° |
| 2026-05-05 05:24 | 37.39947 | -121.96639 | 2664 ft | 185 kts | 317° |
| 2026-05-05 05:25 | 37.41174 | -121.97418 | 2905 ft | 217 kts | 354° |
| 2026-05-05 05:25 | 37.42689 | -121.96884 | 3263 ft | 240 kts | 36° |
| 2026-05-05 05:25 | 37.43709 | -121.95197 | 3808 ft | 251 kts | 71° |
| 2026-05-05 05:25 | 37.43803 | -121.93054 | 4626 ft | 245 kts | 108° |
| 2026-05-05 05:26 | 37.42962 | -121.91227 | 4991 ft | 242 kts | 135° |
| 2026-05-05 05:26 | 37.41788 | -121.89684 | 5643 ft | 246 kts | 136° |
| 2026-05-05 05:26 | 37.40611 | -121.88109 | 6548 ft | 248 kts | 135° |
| 2026-05-05 05:26 | 37.39449 | -121.86478 | 7401 ft | 252 kts | 133° |
| 2026-05-05 05:27 | 37.38295 | -121.84807 | 8294 ft | 255 kts | 131° |
| 2026-05-05 05:27 | 37.37129 | -121.83089 | 9115 ft | 262 kts | 130° |
| 2026-05-05 05:27 | 37.34700 | -121.79550 | 10706 ft | 277 kts | 135° |
| 2026-05-05 05:28 | 37.33185 | -121.77886 | 10999 ft | 304 kts | 140° |
| 2026-05-05 05:28 | 37.31300 | -121.76545 | 11190 ft | 333 kts | 165° |
| 2026-05-05 05:28 | 37.28882 | -121.76437 | 11410 ft | 359 kts | 192° |
| 2026-05-05 05:28 | 37.26521 | -121.77680 | 11710 ft | 378 kts | 214° |
| 2026-05-05 05:29 | 37.24573 | -121.79878 | 12297 ft | 387 kts | 232° |
| 2026-05-05 05:29 | 37.23229 | -121.82801 | 13120 ft | 389 kts | 251° |
| 2026-05-05 05:29 | 37.22750 | -121.86137 | 13884 ft | 391 kts | 273° |
| 2026-05-05 05:29 | 37.23289 | -121.89473 | 14457 ft | 394 kts | 295° |
| 2026-05-05 05:30 | 37.24830 | -121.92307 | 14920 ft | 395 kts | 319° |
| 2026-05-05 05:30 | 37.27163 | -121.94072 | 15768 ft | 391 kts | 343° |
| 2026-05-05 05:30 | 37.29832 | -121.94599 | 16570 ft | 389 kts | 359° |
| 2026-05-05 05:30 | 37.32547 | -121.94920 | 17208 ft | 397 kts | 353° |
| 2026-05-05 05:31 | 37.35268 | -121.95614 | 17824 ft | 402 kts | 355° |
| 2026-05-05 05:31 | 37.38018 | -121.95374 | 18600 ft | 393 kts | 18° |
| 2026-05-05 05:31 | 37.40660 | -121.94746 | 19455 ft | 395 kts | 5° |